createdAt,value
2019-04-06T00:00:44.578Z,12.40
2019-04-06T00:03:12.959Z,12.00
2019-04-06T00:05:44.686Z,12.20
2019-04-06T00:08:13.980Z,12.40
2019-04-06T00:10:44.501Z,12.30
2019-04-06T00:13:13.079Z,12.50
2019-04-06T00:15:44.231Z,12.20
2019-04-06T00:18:12.703Z,12.20
2019-04-06T00:20:41.275Z,12.40
2019-04-06T00:23:09.677Z,12.50
2019-04-06T00:25:44.318Z,11.90
2019-04-06T00:28:10.614Z,12.10
2019-04-06T00:30:57.028Z,12.20
2019-04-06T00:33:26.189Z,12.00
2019-04-06T00:35:54.524Z,12.20
2019-04-06T00:38:23.325Z,12.20
2019-04-06T00:40:51.677Z,12.20
2019-04-06T00:43:19.843Z,12.20
2019-04-06T00:45:48.327Z,12.10
2019-04-06T00:48:16.461Z,11.90
2019-04-06T00:50:45.374Z,12.20
2019-04-06T00:53:14.615Z,12.20
2019-04-06T00:55:43.062Z,12.20
2019-04-06T00:58:11.709Z,12.20
2019-04-06T01:00:40.155Z,12.30
2019-04-06T01:03:08.606Z,12.10
2019-04-06T01:05:37.110Z,12.30
2019-04-06T01:08:06.874Z,12.00
2019-04-06T01:10:35.393Z,12.20
2019-04-06T01:13:03.958Z,12.10
2019-04-06T01:15:32.256Z,12.20
2019-04-06T01:18:00.671Z,12.10
2019-04-06T01:20:29.015Z,12.00
2019-04-06T01:22:57.329Z,12.00
2019-04-06T01:25:25.726Z,12.20
2019-04-06T01:27:54.128Z,12.20
2019-04-06T01:30:22.531Z,12.20
2019-04-06T01:32:51.431Z,12.20
2019-04-06T01:35:19.639Z,12.30
2019-04-06T01:37:47.983Z,12.20
2019-04-06T01:40:16.412Z,12.30
2019-04-06T01:42:44.670Z,12.30
2019-04-06T01:45:13.230Z,12.30
2019-04-06T01:47:41.709Z,12.40
2019-04-06T01:50:13.026Z,12.40
2019-04-06T01:52:41.371Z,12.30
2019-04-06T01:55:09.857Z,12.30
2019-04-06T01:57:38.007Z,12.20
2019-04-06T02:00:08.453Z,12.30
2019-04-06T03:24:28.668Z,11.70
2019-04-06T03:27:02.242Z,11.60
2019-04-06T03:29:29.333Z,11.20
2019-04-06T03:31:59.034Z,11.30
2019-04-06T03:34:27.769Z,11.30
2019-04-06T03:36:56.501Z,11.50
2019-04-06T03:39:25.997Z,11.20
2019-04-06T03:41:54.765Z,11.40
2019-04-06T03:44:23.304Z,11.20
2019-04-06T03:46:54.541Z,11.00
2019-04-06T03:49:25.076Z,10.80
2019-04-06T03:51:53.618Z,10.90
2019-04-06T03:54:22.034Z,10.80
2019-04-06T03:56:50.823Z,10.70
2019-04-06T03:59:19.480Z,10.70
2019-04-06T04:01:47.807Z,10.70
2019-04-06T04:04:16.545Z,10.70
2019-04-06T04:06:44.881Z,10.80
2019-04-06T04:09:13.173Z,10.80
2019-04-06T04:11:41.685Z,10.70
2019-04-06T04:14:10.002Z,10.70
2019-04-06T04:16:38.321Z,10.50
2019-04-06T04:19:06.539Z,10.30
2019-04-06T04:21:35.006Z,10.60
2019-04-06T04:24:03.447Z,10.50
2019-04-06T04:26:32.089Z,10.30
2019-04-06T04:29:00.608Z,10.10
2019-04-06T04:31:29.409Z,10.20
2019-04-06T04:33:57.946Z,10.20
2019-04-06T04:36:26.153Z,10.30
2019-04-06T04:38:54.493Z,10.30
2019-04-06T04:41:23.210Z,10.00
2019-04-06T04:43:51.404Z,9.90
2019-04-06T04:46:19.794Z,9.60
2019-04-06T04:48:48.126Z,9.50
2019-04-06T04:51:16.744Z,9.50
2019-04-06T04:53:45.140Z,9.50
2019-04-06T04:56:13.316Z,9.50
2019-04-06T04:58:41.693Z,9.50
2019-04-06T05:01:11.066Z,9.60
2019-04-06T05:03:39.627Z,9.70
2019-04-06T05:06:08.033Z,9.50
2019-04-06T05:08:36.499Z,9.20
2019-04-06T05:11:04.955Z,9.20
2019-04-06T05:13:34.082Z,9.30
2019-04-06T05:16:12.535Z,9.50
2019-04-06T05:18:42.127Z,9.40
2019-04-06T05:21:11.758Z,9.70
2019-04-06T05:23:40.498Z,9.90
2019-04-06T05:26:08.995Z,10.00
2019-04-06T05:28:38.621Z,9.80
2019-04-06T05:31:07.397Z,9.80
2019-04-06T05:33:35.925Z,9.90
2019-04-06T05:36:05.214Z,9.90
2019-04-06T05:38:35.325Z,9.90
2019-04-06T05:41:04.204Z,10.10
2019-04-06T05:43:34.297Z,9.80
2019-04-06T05:46:02.959Z,10.30
2019-04-06T05:48:32.465Z,10.40
2019-04-06T05:51:01.082Z,10.80
2019-04-06T05:53:30.626Z,10.90
2019-04-06T05:55:59.088Z,10.70
2019-04-06T05:58:27.575Z,10.00
2019-04-06T06:00:56.455Z,10.80
2019-04-06T06:03:25.043Z,10.60
2019-04-06T06:05:53.430Z,10.60
2019-04-06T06:08:21.698Z,10.80
2019-04-06T06:10:49.968Z,10.90
2019-04-06T06:13:18.382Z,10.70
2019-04-06T06:15:48.113Z,10.60
2019-04-06T06:18:25.860Z,11.10
2019-04-06T06:20:48.427Z,11.30
2019-04-06T06:23:38.329Z,11.40
2019-04-06T06:26:06.956Z,11.80
2019-04-06T06:28:35.408Z,11.90
2019-04-06T06:31:04.038Z,11.90
2019-04-06T06:33:32.623Z,12.50
2019-04-06T06:36:01.201Z,12.60
2019-04-06T06:38:30.156Z,12.50
2019-04-06T06:40:58.498Z,12.10
2019-04-06T06:43:26.785Z,12.30
2019-04-06T06:45:55.198Z,12.70
2019-04-06T06:48:23.873Z,12.50
2019-04-06T06:50:52.329Z,11.80
2019-04-06T06:53:21.108Z,11.90
2019-04-06T06:55:49.399Z,11.50
2019-04-06T06:58:25.360Z,11.90
2019-04-06T07:19:31.805Z,11.50
2019-04-06T07:22:00.610Z,11.80
2019-04-06T07:24:29.825Z,12.20
2019-04-06T07:27:00.010Z,12.30
2019-04-06T07:29:30.696Z,12.00
2019-04-06T07:31:59.331Z,11.90
2019-04-06T07:34:28.603Z,11.50
2019-04-06T07:36:57.225Z,12.70
2019-04-06T07:39:25.695Z,12.80
2019-04-06T07:41:54.197Z,12.50
2019-04-06T07:44:22.550Z,12.30
2019-04-06T07:46:51.903Z,13.30
2019-04-06T07:49:20.386Z,13.90
2019-04-06T07:51:48.756Z,12.70
2019-04-06T07:54:17.138Z,13.80
2019-04-06T07:56:45.206Z,13.40
2019-04-06T07:59:13.570Z,12.50
2019-04-06T08:01:41.769Z,12.70
2019-04-06T08:04:09.810Z,12.90
2019-04-06T08:06:38.157Z,13.40
2019-04-06T08:09:07.758Z,13.80
2019-04-06T08:11:35.974Z,13.80
2019-04-06T08:14:04.490Z,13.90
2019-04-06T08:16:32.802Z,14.00
2019-04-06T08:19:01.939Z,14.10
2019-04-06T08:21:30.391Z,13.70
2019-04-06T08:23:58.636Z,14.00
2019-04-06T08:26:27.091Z,14.60
2019-04-06T08:29:01.434Z,14.20
2019-04-06T08:31:25.429Z,14.30
2019-04-06T08:33:53.881Z,14.60
2019-04-06T08:36:22.523Z,13.80
2019-04-06T08:38:50.615Z,13.70
2019-04-06T08:41:18.804Z,14.00
2019-04-06T08:43:47.063Z,15.40
2019-04-06T08:46:16.192Z,16.50
2019-04-06T08:48:44.601Z,15.00
2019-04-06T08:51:12.723Z,14.30
2019-04-06T08:53:40.896Z,15.40
2019-04-06T08:56:09.031Z,14.70
2019-04-06T08:58:37.282Z,14.30
2019-04-06T09:01:05.934Z,14.40
2019-04-06T09:03:33.920Z,15.50
2019-04-06T09:06:02.159Z,15.10
2019-04-06T09:08:30.235Z,15.30
2019-04-06T09:10:58.497Z,16.40
2019-04-06T09:13:26.602Z,14.70
2019-04-06T09:15:54.641Z,15.30
2019-04-06T09:18:23.108Z,15.40
2019-04-06T09:20:51.229Z,16.20
2019-04-06T09:23:20.234Z,15.60
2019-04-06T09:25:48.346Z,15.70
2019-04-06T09:28:16.482Z,16.30
2019-04-06T09:30:44.512Z,15.50
2019-04-06T09:33:12.917Z,16.70
2019-04-06T09:35:41.508Z,17.10
2019-04-06T09:38:17.932Z,15.40
2019-04-06T09:40:48.692Z,17.50
2019-04-06T09:43:17.368Z,16.10
2019-04-06T09:46:04.914Z,16.00
2019-04-06T09:49:01.501Z,16.10
2019-04-06T09:51:47.384Z,16.80
2019-04-06T09:54:35.042Z,17.20
2019-04-06T09:57:25.654Z,18.10
2019-04-06T10:00:01.076Z,19.00
2019-04-06T10:02:46.157Z,17.70
2019-04-06T10:05:51.778Z,15.80
2019-04-06T10:08:38.111Z,16.20
2019-04-06T10:11:38.311Z,15.90
2019-04-06T10:14:16.579Z,16.10
2019-04-06T10:17:02.996Z,16.30
2019-04-06T10:19:56.771Z,16.00
2019-04-06T10:22:40.507Z,16.60
2019-04-06T10:25:24.869Z,15.60
2019-04-06T10:28:15.412Z,17.60
2019-04-06T10:31:07.410Z,18.00
2019-04-06T10:33:44.861Z,17.60
2019-04-06T10:36:24.707Z,17.00
2019-04-06T10:39:10.725Z,17.60
2019-04-06T10:42:10.528Z,17.50
2019-04-06T10:44:51.531Z,16.80
2019-04-06T10:47:37.849Z,19.40
2019-04-06T10:50:17.037Z,18.70
2019-04-06T10:52:57.577Z,18.20
2019-04-06T10:55:54.406Z,17.60
2019-04-06T10:58:53.966Z,16.70
2019-04-06T11:01:39.895Z,16.50
2019-04-06T11:04:26.243Z,17.50
2019-04-06T11:07:16.846Z,17.40
2019-04-06T11:10:22.588Z,17.10
2019-04-06T11:13:09.042Z,17.30
2019-04-06T11:16:11.830Z,19.20
2019-04-06T11:18:57.975Z,18.70
2019-04-06T11:21:48.366Z,19.00
2019-04-06T11:24:28.014Z,20.10
2019-04-06T11:27:03.094Z,19.10
2019-04-06T11:29:53.654Z,18.80
2019-04-06T11:32:53.421Z,17.70
2019-04-06T11:35:57.668Z,18.30
2019-04-06T11:38:57.070Z,18.30
2019-04-06T11:41:44.786Z,17.90
2019-04-06T11:44:26.733Z,18.80
2019-04-06T11:47:08.137Z,20.50
2019-04-06T11:49:56.132Z,20.30
2019-04-06T11:52:47.384Z,20.20
2019-04-06T11:56:01.340Z,21.40
2019-04-06T11:58:52.020Z,19.60
2019-04-06T12:01:54.681Z,19.20
2019-04-06T12:05:00.813Z,18.70
2019-04-06T12:07:47.282Z,18.80
2019-04-06T12:10:35.244Z,17.70
2019-04-06T12:13:14.705Z,18.80
2019-04-06T12:16:08.348Z,19.70
2019-04-06T12:18:45.472Z,20.30
2019-04-06T12:21:34.228Z,21.30
2019-04-06T12:24:20.700Z,20.10
2019-04-06T12:27:11.614Z,19.90
2019-04-06T12:30:00.771Z,20.80
2019-04-06T12:32:40.584Z,20.30
2019-04-06T12:35:42.042Z,21.70
2019-04-06T12:38:37.165Z,19.60
2019-04-06T12:41:28.152Z,20.30
2019-04-06T12:44:34.255Z,20.20
2019-04-06T12:47:21.587Z,19.90
2019-04-06T12:50:10.175Z,19.40
2019-04-06T12:55:28.950Z,21.30
2019-04-06T12:58:25.900Z,21.90
2019-04-06T13:01:26.065Z,22.40
2019-04-06T13:04:23.668Z,22.40
2019-04-06T13:07:12.996Z,20.80
2019-04-06T13:09:54.870Z,21.40
2019-04-06T13:12:42.609Z,19.90
2019-04-06T13:15:19.597Z,21.60
2019-04-06T13:17:58.951Z,22.30
2019-04-06T13:20:52.315Z,22.40
2019-04-06T13:23:49.907Z,22.80
2019-04-06T13:26:46.703Z,21.20
2019-04-06T13:33:12.234Z,20.50
2019-04-06T13:35:58.139Z,22.30
2019-04-06T13:38:44.580Z,21.60
2019-04-06T13:41:24.979Z,21.00
2019-04-06T13:44:03.092Z,20.40
2019-04-06T13:47:09.059Z,19.40
2019-04-06T13:49:54.968Z,21.30
2019-04-06T13:52:42.836Z,21.90
2019-04-06T13:55:19.692Z,20.80
2019-04-06T13:58:07.675Z,20.10
2019-04-06T14:01:16.100Z,21.50
2019-04-06T14:03:52.234Z,20.30
2019-04-06T14:06:45.857Z,21.10
2019-04-06T14:09:24.857Z,22.20
2019-04-06T14:12:07.981Z,22.30
2019-04-06T14:14:46.487Z,22.80
2019-04-06T14:17:36.963Z,22.70
2019-04-06T14:20:31.361Z,23.30
2019-04-06T14:23:17.933Z,23.40
2019-04-06T14:26:18.621Z,23.10
2019-04-06T14:28:52.943Z,23.30
2019-04-06T14:31:43.371Z,23.50
2019-04-06T14:34:29.367Z,23.40
2019-04-06T14:37:25.973Z,23.20
2019-04-06T14:40:16.636Z,23.10
2019-04-06T14:43:03.901Z,23.10
2019-04-06T14:45:55.678Z,21.80
2019-04-06T14:48:31.670Z,22.50
2019-04-06T14:51:20.696Z,21.10
2019-04-06T14:53:57.893Z,22.10
2019-04-06T14:56:45.577Z,22.20
2019-04-06T14:59:32.404Z,22.20
2019-04-06T15:02:39.156Z,21.90
2019-04-06T15:05:22.221Z,21.80
2019-04-06T15:08:09.880Z,22.40
2019-04-06T15:10:47.507Z,23.40
2019-04-06T15:13:21.085Z,20.70
2019-04-06T15:16:10.296Z,22.60
2019-04-06T15:19:10.452Z,22.80
2019-04-06T15:22:16.476Z,22.80
2019-04-06T15:25:07.110Z,21.50
2019-04-06T15:27:53.616Z,22.50
2019-04-06T15:30:47.431Z,21.80
2019-04-06T15:33:46.077Z,23.10
2019-04-06T15:36:36.854Z,22.80
2019-04-06T15:39:24.047Z,23.20
2019-04-06T15:42:09.609Z,21.20
2019-04-06T15:44:57.215Z,21.30
2019-04-06T15:47:54.069Z,20.60
2019-04-06T15:50:50.676Z,21.10
2019-04-06T15:53:44.096Z,20.40
2019-04-06T15:56:44.878Z,20.30
2019-04-06T15:59:26.084Z,19.50
2019-04-06T16:02:13.440Z,19.80
2019-04-06T16:05:04.450Z,20.80
2019-04-06T16:07:58.602Z,21.60
2019-04-06T16:10:55.329Z,20.70
2019-04-06T16:13:52.565Z,20.60
2019-04-06T16:16:30.220Z,20.10
2019-04-06T16:19:09.426Z,20.30
2019-04-06T16:21:55.779Z,19.80
2019-04-06T16:24:46.422Z,19.60
2019-04-06T16:27:37.147Z,20.40
2019-04-06T16:30:25.803Z,20.40
2019-04-06T16:33:06.434Z,20.80
2019-04-06T16:35:52.591Z,20.10
2019-04-06T16:38:35.658Z,20.90
2019-04-06T16:41:27.573Z,19.20
2019-04-06T16:44:06.061Z,20.40
2019-04-06T16:46:57.082Z,20.00
2019-04-06T16:49:43.337Z,19.70
2019-04-06T16:52:41.404Z,19.80
2019-04-06T16:55:47.516Z,19.20
2019-04-06T16:58:33.924Z,20.00
2019-04-06T17:01:33.698Z,19.30
2019-04-06T17:04:20.547Z,20.00
2019-04-06T17:07:01.539Z,20.60
2019-04-06T17:09:55.525Z,20.40
2019-04-06T17:12:39.407Z,20.30
2019-04-06T17:15:22.401Z,19.80
2019-04-06T17:17:59.136Z,19.60
2019-04-06T17:21:02.756Z,19.70
2019-04-06T17:23:39.704Z,19.80
2019-04-06T17:26:35.385Z,19.40
2019-04-06T17:29:41.635Z,19.80
2019-04-06T17:32:15.277Z,19.90
2019-04-06T17:35:06.635Z,19.90
2019-04-06T17:37:43.357Z,19.40
2019-04-06T17:40:21.497Z,19.50
2019-04-06T17:43:00.216Z,19.70
2019-04-06T17:45:47.117Z,19.40
2019-04-06T17:48:23.213Z,18.90
2019-04-06T17:51:02.659Z,18.70
2019-04-06T17:53:49.285Z,18.40
2019-04-06T17:56:38.800Z,19.20
2019-04-06T17:59:26.918Z,19.20
2019-04-06T18:02:05.834Z,19.10
2019-04-06T18:04:56.657Z,18.70
2019-04-06T18:07:42.775Z,18.60
2019-04-06T18:10:33.395Z,18.30
2019-04-06T18:13:27.568Z,18.50
2019-04-06T18:15:55.654Z,18.40
2019-04-06T18:18:25.646Z,18.30
2019-04-06T18:20:54.229Z,18.10
2019-04-06T18:23:27.922Z,18.10
2019-04-06T18:25:56.126Z,18.30
2019-04-06T18:28:24.278Z,18.20
2019-04-06T18:31:03.977Z,18.10
2019-04-06T18:33:32.338Z,17.80
2019-04-06T18:36:00.626Z,18.10
2019-04-06T18:38:53.761Z,17.90
2019-04-06T18:41:22.385Z,18.10
2019-04-06T18:43:50.671Z,18.00
2019-04-06T18:46:19.140Z,17.10
2019-04-06T18:48:47.473Z,17.40
2019-04-06T18:51:15.919Z,17.50
2019-04-06T18:53:44.373Z,17.20
2019-04-06T18:56:13.471Z,17.00
2019-04-06T18:58:42.510Z,17.30
2019-04-06T19:01:11.163Z,17.30
2019-04-06T19:03:39.476Z,17.30
2019-04-06T19:06:08.923Z,17.30
2019-04-06T19:08:37.554Z,17.30
2019-04-06T19:11:06.107Z,17.50
2019-04-06T19:13:34.244Z,17.40
2019-04-06T19:16:02.648Z,17.40
2019-04-06T19:18:31.152Z,17.30
2019-04-06T19:20:59.416Z,17.30
2019-04-06T19:23:27.783Z,17.10
2019-04-06T19:25:55.957Z,17.00
2019-04-06T19:28:24.858Z,17.10
2019-04-06T19:30:53.390Z,16.70
2019-04-06T19:33:24.976Z,16.80
2019-04-06T19:35:51.784Z,16.70
2019-04-06T19:38:20.082Z,17.00
2019-04-06T19:40:49.422Z,17.10
2019-04-06T19:43:18.540Z,16.90
2019-04-06T19:45:47.461Z,17.20
2019-04-06T19:48:15.896Z,17.10
2019-04-06T19:50:44.287Z,16.90
2019-04-06T19:53:13.372Z,17.10
2019-04-06T19:55:42.058Z,16.90
2019-04-06T19:58:13.033Z,17.40
2019-04-06T20:00:42.587Z,17.00
2019-04-06T20:03:13.246Z,17.30
2019-04-06T20:05:42.425Z,17.20
2019-04-06T20:08:10.742Z,17.60
2019-04-06T20:10:39.072Z,17.00
2019-04-06T20:13:07.359Z,16.90
2019-04-06T20:15:36.368Z,17.00
2019-04-06T20:18:05.459Z,17.30
2019-04-06T20:20:34.403Z,17.20
2019-04-06T20:23:02.836Z,17.00
2019-04-06T20:25:31.935Z,17.00
2019-04-06T20:28:15.912Z,17.30
2019-04-06T20:30:47.741Z,17.50
2019-04-06T20:33:19.203Z,17.50
2019-04-06T20:35:48.655Z,17.60
2019-04-06T20:38:17.146Z,17.90
2019-04-06T20:40:51.296Z,18.00
2019-04-06T20:43:21.335Z,17.70
2019-04-06T20:45:50.053Z,17.60
2019-04-06T20:48:21.767Z,17.60
2019-04-06T20:50:49.953Z,17.60
2019-04-06T20:53:18.906Z,17.30
2019-04-06T20:55:48.577Z,17.60
2019-04-06T20:58:17.458Z,17.20
2019-04-06T21:00:46.051Z,16.90
2019-04-06T21:03:14.234Z,16.90
2019-04-06T21:05:42.244Z,16.50
2019-04-06T21:08:10.916Z,17.30
2019-04-06T21:10:39.231Z,17.00
2019-04-06T21:13:07.591Z,16.90
2019-04-06T21:15:36.461Z,16.90
2019-04-06T21:18:04.742Z,16.60
2019-04-06T21:20:33.438Z,16.70
2019-04-06T21:23:01.655Z,17.00
2019-04-06T21:25:32.745Z,16.10
2019-04-06T21:28:01.130Z,16.70
2019-04-06T21:30:29.298Z,16.60
2019-04-06T21:32:57.809Z,16.20
2019-04-06T21:35:26.936Z,15.90
2019-04-06T21:37:55.997Z,16.10
2019-04-06T21:40:25.067Z,16.60
2019-04-06T21:42:53.468Z,16.20
2019-04-06T21:45:21.662Z,16.10
2019-04-06T21:47:50.477Z,16.40
2019-04-06T21:50:18.601Z,16.20
2019-04-06T21:52:49.388Z,15.80
2019-04-06T21:55:26.293Z,15.70
2019-04-06T21:57:54.388Z,15.70
2019-04-06T22:00:41.085Z,16.00
2019-04-06T22:03:12.185Z,16.00
2019-04-06T22:05:41.057Z,15.90
2019-04-06T22:08:09.380Z,16.00
2019-04-06T22:10:37.904Z,15.80
2019-04-06T22:13:06.252Z,16.10
2019-04-06T22:15:34.892Z,16.20
2019-04-06T22:18:03.496Z,16.20
2019-04-06T22:20:32.503Z,16.20
2019-04-06T22:23:00.565Z,16.10
2019-04-06T22:25:28.983Z,16.20
2019-04-06T22:27:57.125Z,16.00
2019-04-06T22:30:25.115Z,16.00
2019-04-06T22:32:53.159Z,15.80
2019-04-06T22:35:21.402Z,15.50
2019-04-06T22:37:49.709Z,15.50
2019-04-06T22:40:18.144Z,15.80
2019-04-06T22:42:46.746Z,15.60
2019-04-06T22:45:17.493Z,15.50
2019-04-06T22:47:46.264Z,15.80
2019-04-06T22:50:14.514Z,15.80
2019-04-06T22:52:42.558Z,15.70
2019-04-06T22:55:10.647Z,15.80
2019-04-06T22:57:38.619Z,15.60
2019-04-06T23:00:07.893Z,15.50
2019-04-06T23:02:59.974Z,15.20
2019-04-06T23:05:36.030Z,14.80
2019-04-06T23:08:04.409Z,14.40
2019-04-06T23:10:32.858Z,14.60
2019-04-06T23:13:01.261Z,14.70
2019-04-06T23:15:29.248Z,14.70
2019-04-06T23:17:58.045Z,14.80
2019-04-06T23:20:26.686Z,14.80
2019-04-06T23:22:54.778Z,14.60
2019-04-06T23:25:22.873Z,14.90
2019-04-06T23:27:50.819Z,14.40
2019-04-06T23:30:18.738Z,14.40
2019-04-06T23:32:46.727Z,14.80
2019-04-06T23:35:15.760Z,14.50
2019-04-06T23:37:43.732Z,14.50
2019-04-06T23:40:12.296Z,14.40
2019-04-06T23:42:40.451Z,14.20
2019-04-06T23:45:09.126Z,14.30
2019-04-06T23:47:37.687Z,14.30
2019-04-06T23:50:06.629Z,14.60
2019-04-06T23:52:35.440Z,14.80
2019-04-06T23:55:03.850Z,14.70
2019-04-06T23:57:31.790Z,14.70
